sensor_id;sensor_type;location;lat;lon;timestamp;pressure;altitude;pressure_sealevel;temperature;humidity
6506;BME280;3286;49.858;8.768;2023-12-20T00:01:33;99182.06;;;5.35;70.36
6506;BME280;3286;49.858;8.768;2023-12-20T00:04:00;99183.00;;;5.91;68.71
6506;BME280;3286;49.858;8.768;2023-12-20T00:06:26;99180.06;;;6.18;67.58
6506;BME280;3286;49.858;8.768;2023-12-20T00:08:53;99173.25;;;6.16;67.64
6506;BME280;3286;49.858;8.768;2023-12-20T00:11:20;99177.91;;;5.89;68.91
6506;BME280;3286;49.858;8.768;2023-12-20T00:13:48;99172.88;;;5.29;69.09
6506;BME280;3286;49.858;8.768;2023-12-20T00:16:14;99166.97;;;5.73;68.89
6506;BME280;3286;49.858;8.768;2023-12-20T00:18:41;99165.28;;;6.06;68.30
6506;BME280;3286;49.858;8.768;2023-12-20T00:21:08;99170.97;;;6.22;67.55
6506;BME280;3286;49.858;8.768;2023-12-20T00:23:34;99159.78;;;6.53;66.15
6506;BME280;3286;49.858;8.768;2023-12-20T00:26:01;99154.69;;;5.62;69.13
6506;BME280;3286;49.858;8.768;2023-12-20T00:28:28;99159.00;;;5.51;69.95
6506;BME280;3286;49.858;8.768;2023-12-20T00:30:56;99154.09;;;5.81;68.80
6506;BME280;3286;49.858;8.768;2023-12-20T00:33:22;99154.31;;;6.01;68.26
6506;BME280;3286;49.858;8.768;2023-12-20T00:35:49;99140.59;;;5.86;69.03
6506;BME280;3286;49.858;8.768;2023-12-20T00:38:15;99143.03;;;5.66;69.48
6506;BME280;3286;49.858;8.768;2023-12-20T00:40:42;99142.88;;;6.02;68.22
6506;BME280;3286;49.858;8.768;2023-12-20T00:43:09;99143.69;;;6.14;67.41
6506;BME280;3286;49.858;8.768;2023-12-20T00:45:35;99138.19;;;6.17;67.50
6506;BME280;3286;49.858;8.768;2023-12-20T00:48:04;99132.34;;;6.25;67.07
6506;BME280;3286;49.858;8.768;2023-12-20T00:50:30;99137.63;;;6.02;67.22
6506;BME280;3286;49.858;8.768;2023-12-20T00:52:57;99135.13;;;5.89;68.01
6506;BME280;3286;49.858;8.768;2023-12-20T00:55:24;99137.84;;;5.99;67.50
6506;BME280;3286;49.858;8.768;2023-12-20T00:57:50;99125.47;;;6.01;67.54
6506;BME280;3286;49.858;8.768;2023-12-20T01:00:18;99131.56;;;6.01;67.90
6506;BME280;3286;49.858;8.768;2023-12-20T01:02:45;99122.16;;;5.64;68.90
6506;BME280;3286;49.858;8.768;2023-12-20T01:05:16;99126.88;;;6.05;67.49
6506;BME280;3286;49.858;8.768;2023-12-20T01:07:43;99125.31;;;6.14;67.43
6506;BME280;3286;49.858;8.768;2023-12-20T01:10:09;99136.09;;;5.76;68.48
6506;BME280;3286;49.858;8.768;2023-12-20T01:12:36;99138.34;;;5.81;68.81
6506;BME280;3286;49.858;8.768;2023-12-20T01:15:03;99138.44;;;6.14;67.14
6506;BME280;3286;49.858;8.768;2023-12-20T01:17:30;99127.34;;;6.10;66.69
6506;BME280;3286;49.858;8.768;2023-12-20T01:19:56;99128.56;;;6.06;67.78
6506;BME280;3286;49.858;8.768;2023-12-20T01:22:25;99126.00;;;5.49;69.30
6506;BME280;3286;49.858;8.768;2023-12-20T01:24:51;99124.78;;;5.76;68.34
6506;BME280;3286;49.858;8.768;2023-12-20T01:27:18;99125.00;;;5.84;68.45
6506;BME280;3286;49.858;8.768;2023-12-20T01:29:45;99121.03;;;5.90;67.43
6506;BME280;3286;49.858;8.768;2023-12-20T01:32:11;99120.25;;;5.55;68.50
6506;BME280;3286;49.858;8.768;2023-12-20T01:34:38;99119.63;;;5.06;70.85
6506;BME280;3286;49.858;8.768;2023-12-20T01:37:05;99119.69;;;5.63;69.47
6506;BME280;3286;49.858;8.768;2023-12-20T01:39:33;99120.91;;;6.47;66.10
6506;BME280;3286;49.858;8.768;2023-12-20T01:41:59;99132.19;;;6.37;66.01
6506;BME280;3286;49.858;8.768;2023-12-20T01:44:26;99140.59;;;6.08;66.76
6506;BME280;3286;49.858;8.768;2023-12-20T01:46:53;99132.28;;;6.03;66.75
6506;BME280;3286;49.858;8.768;2023-12-20T01:49:20;99136.78;;;5.90;67.33
6506;BME280;3286;49.858;8.768;2023-12-20T01:51:47;99136.59;;;5.36;68.92
6506;BME280;3286;49.858;8.768;2023-12-20T01:54:15;99130.97;;;5.63;68.24
6506;BME280;3286;49.858;8.768;2023-12-20T01:56:43;99132.84;;;6.07;66.28
6506;BME280;3286;49.858;8.768;2023-12-20T01:59:10;99139.28;;;6.03;66.95
6506;BME280;3286;49.858;8.768;2023-12-20T02:01:39;99133.41;;;6.55;65.20
6506;BME280;3286;49.858;8.768;2023-12-20T02:04:06;99134.28;;;5.88;66.90
6506;BME280;3286;49.858;8.768;2023-12-20T02:06:33;99136.94;;;5.77;67.64
6506;BME280;3286;49.858;8.768;2023-12-20T02:09:00;99142.63;;;5.93;67.18
6506;BME280;3286;49.858;8.768;2023-12-20T02:11:27;99134.31;;;5.77;67.02
6506;BME280;3286;49.858;8.768;2023-12-20T02:13:55;99139.66;;;6.09;66.15
6506;BME280;3286;49.858;8.768;2023-12-20T02:16:22;99132.53;;;6.33;65.88
6506;BME280;3286;49.858;8.768;2023-12-20T02:18:49;99136.72;;;6.35;65.44
6506;BME280;3286;49.858;8.768;2023-12-20T02:21:15;99143.59;;;6.04;66.66
6506;BME280;3286;49.858;8.768;2023-12-20T02:23:43;99137.91;;;6.31;66.04
6506;BME280;3286;49.858;8.768;2023-12-20T02:26:10;99144.44;;;6.04;66.61
6506;BME280;3286;49.858;8.768;2023-12-20T02:28:39;99147.75;;;6.06;66.04
6506;BME280;3286;49.858;8.768;2023-12-20T02:31:06;99137.53;;;6.03;66.61
6506;BME280;3286;49.858;8.768;2023-12-20T02:33:32;99122.84;;;5.89;67.46
6506;BME280;3286;49.858;8.768;2023-12-20T02:35:59;99117.72;;;5.99;67.08
6506;BME280;3286;49.858;8.768;2023-12-20T02:38:25;99111.69;;;6.52;65.10
6506;BME280;3286;49.858;8.768;2023-12-20T02:40:53;99110.97;;;5.74;67.07
6506;BME280;3286;49.858;8.768;2023-12-20T02:43:20;99113.22;;;5.78;67.56
6506;BME280;3286;49.858;8.768;2023-12-20T02:45:47;99122.88;;;5.66;68.04
6506;BME280;3286;49.858;8.768;2023-12-20T02:48:13;99120.63;;;6.29;65.90
6506;BME280;3286;49.858;8.768;2023-12-20T02:50:40;99129.41;;;6.06;67.14
6506;BME280;3286;49.858;8.768;2023-12-20T02:53:06;99126.78;;;5.95;67.56
6506;BME280;3286;49.858;8.768;2023-12-20T02:55:33;99125.22;;;6.15;67.03
6506;BME280;3286;49.858;8.768;2023-12-20T02:58:01;99108.31;;;6.29;65.53
6506;BME280;3286;49.858;8.768;2023-12-20T03:00:28;99107.88;;;6.78;64.57
6506;BME280;3286;49.858;8.768;2023-12-20T03:02:54;99109.84;;;6.64;64.69
6506;BME280;3286;49.858;8.768;2023-12-20T03:05:21;99116.13;;;6.52;65.36
6506;BME280;3286;49.858;8.768;2023-12-20T03:07:47;99128.75;;;6.58;65.02
6506;BME280;3286;49.858;8.768;2023-12-20T03:10:14;99130.16;;;6.30;66.17
6506;BME280;3286;49.858;8.768;2023-12-20T03:12:41;99114.72;;;6.48;65.22
6506;BME280;3286;49.858;8.768;2023-12-20T03:15:09;99095.97;;;6.20;66.42
6506;BME280;3286;49.858;8.768;2023-12-20T03:17:36;99103.88;;;6.41;66.06
6506;BME280;3286;49.858;8.768;2023-12-20T03:20:03;99115.50;;;5.72;67.99
6506;BME280;3286;49.858;8.768;2023-12-20T03:22:30;99118.00;;;6.29;66.00
6506;BME280;3286;49.858;8.768;2023-12-20T03:24:57;99121.03;;;6.45;65.72
6506;BME280;3286;49.858;8.768;2023-12-20T03:27:23;99120.47;;;6.42;66.02
6506;BME280;3286;49.858;8.768;2023-12-20T03:29:50;99136.72;;;6.24;66.45
6506;BME280;3286;49.858;8.768;2023-12-20T03:32:18;99131.63;;;6.11;66.74
6506;BME280;3286;49.858;8.768;2023-12-20T03:34:45;99133.66;;;6.51;65.23
6506;BME280;3286;49.858;8.768;2023-12-20T03:37:11;99123.84;;;6.32;66.22
6506;BME280;3286;49.858;8.768;2023-12-20T03:39:38;99127.03;;;5.80;68.12
6506;BME280;3286;49.858;8.768;2023-12-20T03:42:05;99135.47;;;6.72;65.35
6506;BME280;3286;49.858;8.768;2023-12-20T03:44:31;99143.31;;;6.18;66.57
6506;BME280;3286;49.858;8.768;2023-12-20T03:46:58;99134.50;;;5.97;67.20
6506;BME280;3286;49.858;8.768;2023-12-20T03:49:26;99136.84;;;5.56;69.29
6506;BME280;3286;49.858;8.768;2023-12-20T03:51:53;99133.72;;;5.62;68.48
6506;BME280;3286;49.858;8.768;2023-12-20T03:54:19;99144.88;;;6.09;67.53
6506;BME280;3286;49.858;8.768;2023-12-20T03:56:46;99136.31;;;5.96;67.87
6506;BME280;3286;49.858;8.768;2023-12-20T03:59:12;99146.50;;;6.22;66.50
6506;BME280;3286;49.858;8.768;2023-12-20T04:01:43;99137.84;;;5.99;68.22
6506;BME280;3286;49.858;8.768;2023-12-20T04:04:09;99151.59;;;6.67;65.73
6506;BME280;3286;49.858;8.768;2023-12-20T04:06:38;99142.03;;;6.45;66.30
6506;BME280;3286;49.858;8.768;2023-12-20T04:09:04;99145.00;;;6.52;65.97
6506;BME280;3286;49.858;8.768;2023-12-20T04:11:31;99147.19;;;6.68;65.39
6506;BME280;3286;49.858;8.768;2023-12-20T04:13:57;99146.94;;;6.71;65.25
6506;BME280;3286;49.858;8.768;2023-12-20T04:16:24;99146.63;;;6.86;64.69
6506;BME280;3286;49.858;8.768;2023-12-20T04:18:51;99150.13;;;6.54;66.34
6506;BME280;3286;49.858;8.768;2023-12-20T04:21:17;99155.16;;;6.99;63.98
6506;BME280;3286;49.858;8.768;2023-12-20T04:23:45;99156.81;;;7.00;63.80
6506;BME280;3286;49.858;8.768;2023-12-20T04:26:12;99166.03;;;6.73;64.48
6506;BME280;3286;49.858;8.768;2023-12-20T04:28:39;99165.00;;;6.86;64.63
6506;BME280;3286;49.858;8.768;2023-12-20T04:31:05;99179.59;;;5.79;68.64
6506;BME280;3286;49.858;8.768;2023-12-20T04:33:32;99167.84;;;6.29;67.42
6506;BME280;3286;49.858;8.768;2023-12-20T04:35:59;99165.78;;;6.44;66.77
6506;BME280;3286;49.858;8.768;2023-12-20T04:38:26;99164.31;;;6.51;66.37
6506;BME280;3286;49.858;8.768;2023-12-20T04:40:54;99168.75;;;6.72;65.54
6506;BME280;3286;49.858;8.768;2023-12-20T04:43:21;99176.44;;;6.31;67.00
6506;BME280;3286;49.858;8.768;2023-12-20T04:45:47;99174.88;;;6.28;67.13
6506;BME280;3286;49.858;8.768;2023-12-20T04:48:14;99168.69;;;6.62;66.34
6506;BME280;3286;49.858;8.768;2023-12-20T04:50:41;99176.00;;;6.79;65.68
6506;BME280;3286;49.858;8.768;2023-12-20T04:53:08;99178.28;;;6.84;65.10
6506;BME280;3286;49.858;8.768;2023-12-20T04:55:34;99194.66;;;6.76;64.66
6506;BME280;3286;49.858;8.768;2023-12-20T04:58:03;99189.31;;;6.66;65.24
6506;BME280;3286;49.858;8.768;2023-12-20T05:00:30;99193.84;;;6.97;64.84
6506;BME280;3286;49.858;8.768;2023-12-20T05:02:56;99190.97;;;6.67;65.04
6506;BME280;3286;49.858;8.768;2023-12-20T05:05:23;99193.63;;;6.89;65.03
6506;BME280;3286;49.858;8.768;2023-12-20T05:07:50;99200.16;;;6.73;65.66
6506;BME280;3286;49.858;8.768;2023-12-20T05:10:17;99205.16;;;6.44;66.55
6506;BME280;3286;49.858;8.768;2023-12-20T05:12:44;99199.84;;;6.22;67.71
6506;BME280;3286;49.858;8.768;2023-12-20T05:15:12;99201.19;;;6.82;65.38
6506;BME280;3286;49.858;8.768;2023-12-20T05:17:39;99218.97;;;6.46;66.16
6506;BME280;3286;49.858;8.768;2023-12-20T05:20:07;99215.94;;;6.62;65.98
6506;BME280;3286;49.858;8.768;2023-12-20T05:22:34;99205.00;;;6.57;65.61
6506;BME280;3286;49.858;8.768;2023-12-20T05:25:01;99210.06;;;5.34;68.99
6506;BME280;3286;49.858;8.768;2023-12-20T05:27:28;99224.13;;;5.56;69.31
6506;BME280;3286;49.858;8.768;2023-12-20T05:29:54;99223.53;;;5.87;68.13
6506;BME280;3286;49.858;8.768;2023-12-20T05:32:24;99225.22;;;5.99;67.80
6506;BME280;3286;49.858;8.768;2023-12-20T05:34:50;99226.91;;;4.72;71.64
6506;BME280;3286;49.858;8.768;2023-12-20T05:37:17;99232.84;;;5.79;68.51
6506;BME280;3286;49.858;8.768;2023-12-20T05:39:44;99238.41;;;5.41;69.04
6506;BME280;3286;49.858;8.768;2023-12-20T05:42:10;99237.41;;;5.19;69.94
6506;BME280;3286;49.858;8.768;2023-12-20T05:44:40;99240.72;;;5.79;68.19
6506;BME280;3286;49.858;8.768;2023-12-20T05:47:06;99262.38;;;5.70;68.19
6506;BME280;3286;49.858;8.768;2023-12-20T05:49:34;99263.22;;;5.12;70.80
6506;BME280;3286;49.858;8.768;2023-12-20T05:52:01;99271.34;;;5.90;68.99
6506;BME280;3286;49.858;8.768;2023-12-20T05:54:28;99269.63;;;5.66;68.54
6506;BME280;3286;49.858;8.768;2023-12-20T05:56:54;99277.00;;;4.78;71.50
6506;BME280;3286;49.858;8.768;2023-12-20T05:59:21;99277.56;;;5.42;70.56
6506;BME280;3286;49.858;8.768;2023-12-20T06:01:48;99275.25;;;5.85;68.58
6506;BME280;3286;49.858;8.768;2023-12-20T06:04:14;99265.53;;;6.32;66.62
6506;BME280;3286;49.858;8.768;2023-12-20T06:06:42;99279.44;;;5.87;66.86
6506;BME280;3286;49.858;8.768;2023-12-20T06:09:09;99277.19;;;6.40;64.68
6506;BME280;3286;49.858;8.768;2023-12-20T06:11:36;99278.88;;;6.41;64.06
6506;BME280;3286;49.858;8.768;2023-12-20T06:14:03;99269.81;;;6.77;62.91
6506;BME280;3286;49.858;8.768;2023-12-20T06:16:30;99262.44;;;7.04;61.61
6506;BME280;3286;49.858;8.768;2023-12-20T06:18:56;99278.56;;;6.66;62.44
6506;BME280;3286;49.858;8.768;2023-12-20T06:21:23;99277.34;;;6.71;62.69
6506;BME280;3286;49.858;8.768;2023-12-20T06:23:51;99273.88;;;6.37;63.46
6506;BME280;3286;49.858;8.768;2023-12-20T06:26:18;99278.06;;;6.73;62.88
6506;BME280;3286;49.858;8.768;2023-12-20T06:28:44;99283.88;;;6.44;63.06
6506;BME280;3286;49.858;8.768;2023-12-20T06:31:11;99283.44;;;6.71;62.97
6506;BME280;3286;49.858;8.768;2023-12-20T06:33:38;99290.13;;;6.75;62.42
6506;BME280;3286;49.858;8.768;2023-12-20T06:36:06;99290.13;;;7.08;61.27
6506;BME280;3286;49.858;8.768;2023-12-20T06:38:32;99289.25;;;6.86;61.09
6506;BME280;3286;49.858;8.768;2023-12-20T06:41:00;99285.34;;;6.80;61.54
6506;BME280;3286;49.858;8.768;2023-12-20T06:43:27;99289.00;;;6.89;61.55
6506;BME280;3286;49.858;8.768;2023-12-20T06:45:54;99287.97;;;6.80;61.86
6506;BME280;3286;49.858;8.768;2023-12-20T06:48:21;99285.66;;;6.43;62.68
6506;BME280;3286;49.858;8.768;2023-12-20T06:50:47;99280.72;;;6.61;62.11
6506;BME280;3286;49.858;8.768;2023-12-20T06:53:14;99278.41;;;6.13;62.60
6506;BME280;3286;49.858;8.768;2023-12-20T06:55:40;99260.75;;;6.26;61.89
6506;BME280;3286;49.858;8.768;2023-12-20T06:58:09;99288.28;;;6.32;61.70
6506;BME280;3286;49.858;8.768;2023-12-20T07:00:35;99293.41;;;6.22;61.31
6506;BME280;3286;49.858;8.768;2023-12-20T07:03:02;99295.03;;;5.77;62.10
6506;BME280;3286;49.858;8.768;2023-12-20T07:05:29;99287.66;;;5.71;62.50
6506;BME280;3286;49.858;8.768;2023-12-20T07:07:55;99278.03;;;6.29;60.65
6506;BME280;3286;49.858;8.768;2023-12-20T07:10:22;99285.06;;;6.28;59.81
6506;BME280;3286;49.858;8.768;2023-12-20T07:12:49;99289.06;;;5.64;61.62
6506;BME280;3286;49.858;8.768;2023-12-20T07:15:18;99290.31;;;6.28;60.11
6506;BME280;3286;49.858;8.768;2023-12-20T07:17:44;99295.56;;;6.17;59.76
6506;BME280;3286;49.858;8.768;2023-12-20T07:20:11;99288.19;;;6.22;59.86
6506;BME280;3286;49.858;8.768;2023-12-20T07:22:38;99291.72;;;6.55;58.71
6506;BME280;3286;49.858;8.768;2023-12-20T07:25:06;99294.88;;;6.03;60.13
6506;BME280;3286;49.858;8.768;2023-12-20T07:27:33;99297.13;;;6.31;59.42
6506;BME280;3286;49.858;8.768;2023-12-20T07:29:59;99300.25;;;6.13;59.73
6506;BME280;3286;49.858;8.768;2023-12-20T07:32:27;99300.69;;;6.41;58.60
6506;BME280;3286;49.858;8.768;2023-12-20T07:34:54;99314.63;;;5.96;60.10
6506;BME280;3286;49.858;8.768;2023-12-20T07:37:20;99319.53;;;6.01;60.66
6506;BME280;3286;49.858;8.768;2023-12-20T07:39:47;99313.47;;;6.12;60.08
6506;BME280;3286;49.858;8.768;2023-12-20T07:42:14;99309.38;;;6.30;59.37
6506;BME280;3286;49.858;8.768;2023-12-20T07:44:40;99306.06;;;6.05;59.53
6506;BME280;3286;49.858;8.768;2023-12-20T07:47:07;99326.16;;;5.82;60.92
6506;BME280;3286;49.858;8.768;2023-12-20T07:49:35;99318.47;;;6.26;59.33
6506;BME280;3286;49.858;8.768;2023-12-20T07:52:01;99316.94;;;6.23;59.75
6506;BME280;3286;49.858;8.768;2023-12-20T07:54:28;99316.94;;;6.12;60.28
6506;BME280;3286;49.858;8.768;2023-12-20T07:56:55;99317.38;;;6.40;60.04
6506;BME280;3286;49.858;8.768;2023-12-20T07:59:22;99322.91;;;6.14;60.36
6506;BME280;3286;49.858;8.768;2023-12-20T08:01:48;99311.66;;;6.46;59.56
6506;BME280;3286;49.858;8.768;2023-12-20T08:04:15;99323.38;;;6.19;60.29
6506;BME280;3286;49.858;8.768;2023-12-20T08:06:43;99316.94;;;6.90;58.49
6506;BME280;3286;49.858;8.768;2023-12-20T08:09:09;99321.63;;;6.75;58.70
6506;BME280;3286;49.858;8.768;2023-12-20T08:11:36;99324.19;;;6.08;59.91
6506;BME280;3286;49.858;8.768;2023-12-20T08:14:03;99329.03;;;6.70;58.73
6506;BME280;3286;49.858;8.768;2023-12-20T08:16:29;99320.72;;;6.08;59.70
6506;BME280;3286;49.858;8.768;2023-12-20T08:18:56;99324.91;;;6.22;59.35
6506;BME280;3286;49.858;8.768;2023-12-20T08:21:23;99319.16;;;6.51;59.16
6506;BME280;3286;49.858;8.768;2023-12-20T08:23:51;99320.56;;;6.66;58.44
6506;BME280;3286;49.858;8.768;2023-12-20T08:26:18;99334.44;;;6.23;58.71
6506;BME280;3286;49.858;8.768;2023-12-20T08:28:46;99343.88;;;6.14;59.50
6506;BME280;3286;49.858;8.768;2023-12-20T08:31:14;99349.16;;;5.90;59.83
6506;BME280;3286;49.858;8.768;2023-12-20T08:33:41;99351.03;;;6.58;58.62
6506;BME280;3286;49.858;8.768;2023-12-20T08:36:08;99353.66;;;6.23;59.08
6506;BME280;3286;49.858;8.768;2023-12-20T08:38:34;99347.91;;;6.52;58.31
6506;BME280;3286;49.858;8.768;2023-12-20T08:41:03;99357.00;;;6.26;59.10
6506;BME280;3286;49.858;8.768;2023-12-20T08:43:30;99340.19;;;6.40;59.24
6506;BME280;3286;49.858;8.768;2023-12-20T08:45:57;99345.53;;;6.27;59.43
6506;BME280;3286;49.858;8.768;2023-12-20T08:48:23;99338.41;;;6.95;57.66
6506;BME280;3286;49.858;8.768;2023-12-20T08:50:50;99346.53;;;5.78;60.72
6506;BME280;3286;49.858;8.768;2023-12-20T08:53:17;99334.06;;;6.50;58.68
6506;BME280;3286;49.858;8.768;2023-12-20T08:55:44;99349.59;;;6.31;59.28
6506;BME280;3286;49.858;8.768;2023-12-20T08:58:13;99350.53;;;6.52;59.05
6506;BME280;3286;49.858;8.768;2023-12-20T09:00:40;99354.50;;;6.35;58.65
6506;BME280;3286;49.858;8.768;2023-12-20T09:03:06;99348.28;;;6.48;58.38
6506;BME280;3286;49.858;8.768;2023-12-20T09:05:33;99349.59;;;6.54;58.43
6506;BME280;3286;49.858;8.768;2023-12-20T09:08:00;99348.47;;;7.23;56.83
6506;BME280;3286;49.858;8.768;2023-12-20T09:10:26;99354.63;;;7.33;56.49
6506;BME280;3286;49.858;8.768;2023-12-20T09:12:53;99349.59;;;7.09;57.53
6506;BME280;3286;49.858;8.768;2023-12-20T09:15:23;99350.91;;;6.14;58.85
6506;BME280;3286;49.858;8.768;2023-12-20T09:17:49;99338.94;;;6.66;58.19
6506;BME280;3286;49.858;8.768;2023-12-20T09:20:16;99345.63;;;6.71;57.88
6506;BME280;3286;49.858;8.768;2023-12-20T09:22:43;99349.00;;;6.04;59.35
6506;BME280;3286;49.858;8.768;2023-12-20T09:25:10;99346.66;;;6.91;57.33
6506;BME280;3286;49.858;8.768;2023-12-20T09:27:37;99345.16;;;6.77;58.20
6506;BME280;3286;49.858;8.768;2023-12-20T09:30:05;99348.03;;;6.62;57.84
6506;BME280;3286;49.858;8.768;2023-12-20T09:32:33;99341.75;;;6.98;57.92
6506;BME280;3286;49.858;8.768;2023-12-20T09:35:00;99350.66;;;6.51;59.21
6506;BME280;3286;49.858;8.768;2023-12-20T09:37:27;99343.03;;;6.48;58.58
6506;BME280;3286;49.858;8.768;2023-12-20T09:39:54;99337.06;;;6.46;59.58
6506;BME280;3286;49.858;8.768;2023-12-20T09:42:24;99338.38;;;7.07;57.84
6506;BME280;3286;49.858;8.768;2023-12-20T09:44:57;99321.13;;;6.81;58.92
6506;BME280;3286;49.858;8.768;2023-12-20T09:47:26;99327.31;;;6.36;59.50
6506;BME280;3286;49.858;8.768;2023-12-20T09:49:54;99331.88;;;5.87;61.28
6506;BME280;3286;49.858;8.768;2023-12-20T09:52:23;99334.41;;;6.69;59.70
6506;BME280;3286;49.858;8.768;2023-12-20T09:54:52;99345.44;;;7.06;58.26
6506;BME280;3286;49.858;8.768;2023-12-20T09:57:20;99345.47;;;7.28;57.93
6506;BME280;3286;49.858;8.768;2023-12-20T09:59:47;99348.81;;;6.97;59.07
6506;BME280;3286;49.858;8.768;2023-12-20T10:02:14;99354.84;;;6.65;59.15
6506;BME280;3286;49.858;8.768;2023-12-20T10:04:46;99350.34;;;7.00;59.55
6506;BME280;3286;49.858;8.768;2023-12-20T10:07:15;99354.25;;;6.38;60.28
6506;BME280;3286;49.858;8.768;2023-12-20T10:09:42;99343.38;;;6.66;60.00
6506;BME280;3286;49.858;8.768;2023-12-20T10:12:09;99348.75;;;6.53;60.92
6506;BME280;3286;49.858;8.768;2023-12-20T10:14:35;99331.78;;;6.69;60.91
6506;BME280;3286;49.858;8.768;2023-12-20T10:17:02;99331.06;;;6.78;60.55
6506;BME280;3286;49.858;8.768;2023-12-20T10:19:29;99326.41;;;6.70;60.44
6506;BME280;3286;49.858;8.768;2023-12-20T10:21:57;99327.13;;;6.72;61.18
6506;BME280;3286;49.858;8.768;2023-12-20T10:24:28;99328.50;;;6.32;61.27
6506;BME280;3286;49.858;8.768;2023-12-20T10:27:02;99325.19;;;6.86;59.73
6506;BME280;3286;49.858;8.768;2023-12-20T10:29:32;99308.19;;;7.01;59.24
6506;BME280;3286;49.858;8.768;2023-12-20T10:31:59;99321.94;;;7.26;59.39
6506;BME280;3286;49.858;8.768;2023-12-20T10:34:26;99315.19;;;7.12;59.39
6506;BME280;3286;49.858;8.768;2023-12-20T10:36:52;99318.66;;;7.13;59.26
6506;BME280;3286;49.858;8.768;2023-12-20T10:39:20;99315.13;;;7.02;59.65
6506;BME280;3286;49.858;8.768;2023-12-20T10:41:49;99320.88;;;6.96;59.36
6506;BME280;3286;49.858;8.768;2023-12-20T10:44:15;99325.34;;;6.61;60.62
6506;BME280;3286;49.858;8.768;2023-12-20T10:46:43;99304.00;;;6.66;59.52
6506;BME280;3286;49.858;8.768;2023-12-20T10:49:17;99300.84;;;6.84;59.38
6506;BME280;3286;49.858;8.768;2023-12-20T10:51:47;99305.91;;;7.29;58.45
6506;BME280;3286;49.858;8.768;2023-12-20T10:54:15;99300.09;;;6.49;60.12
6506;BME280;3286;49.858;8.768;2023-12-20T10:56:42;99304.13;;;6.53;60.44
6506;BME280;3286;49.858;8.768;2023-12-20T10:59:11;99305.28;;;6.83;59.17
6506;BME280;3286;49.858;8.768;2023-12-20T11:01:38;99308.09;;;6.13;60.68
6506;BME280;3286;49.858;8.768;2023-12-20T11:04:09;99300.63;;;6.75;59.57
6506;BME280;3286;49.858;8.768;2023-12-20T11:06:45;99291.63;;;6.89;57.80
6506;BME280;3286;49.858;8.768;2023-12-20T11:09:19;99293.09;;;6.71;59.67
6506;BME280;3286;49.858;8.768;2023-12-20T11:12:07;99295.69;;;6.27;60.93
6506;BME280;3286;49.858;8.768;2023-12-20T11:14:40;99294.88;;;6.03;61.75
6506;BME280;3286;49.858;8.768;2023-12-20T11:17:09;99292.59;;;6.33;61.05
6506;BME280;3286;49.858;8.768;2023-12-20T11:19:38;99292.00;;;6.18;61.18
6506;BME280;3286;49.858;8.768;2023-12-20T11:22:27;99291.44;;;7.35;58.75
6506;BME280;3286;49.858;8.768;2023-12-20T11:24:58;99284.59;;;7.44;58.00
6506;BME280;3286;49.858;8.768;2023-12-20T11:27:25;99293.75;;;7.49;57.66
6506;BME280;3286;49.858;8.768;2023-12-20T11:29:56;99291.88;;;7.19;58.43
6506;BME280;3286;49.858;8.768;2023-12-20T11:32:29;99295.22;;;7.21;58.39
6506;BME280;3286;49.858;8.768;2023-12-20T11:34:56;99295.69;;;7.47;58.10
6506;BME280;3286;49.858;8.768;2023-12-20T11:37:28;99298.03;;;6.52;59.86
6506;BME280;3286;49.858;8.768;2023-12-20T11:40:00;99295.78;;;6.48;60.08
6506;BME280;3286;49.858;8.768;2023-12-20T11:42:32;99297.66;;;7.13;58.45
6506;BME280;3286;49.858;8.768;2023-12-20T11:45:01;99297.03;;;7.94;56.10
6506;BME280;3286;49.858;8.768;2023-12-20T11:47:29;99289.97;;;7.42;58.07
6506;BME280;3286;49.858;8.768;2023-12-20T11:49:56;99293.50;;;6.99;58.92
6506;BME280;3286;49.858;8.768;2023-12-20T11:52:25;99297.94;;;7.52;57.48
6506;BME280;3286;49.858;8.768;2023-12-20T11:54:52;99294.00;;;7.46;57.52
6506;BME280;3286;49.858;8.768;2023-12-20T11:57:19;99289.66;;;7.35;57.96
6506;BME280;3286;49.858;8.768;2023-12-20T11:59:46;99291.25;;;7.27;58.25
6506;BME280;3286;49.858;8.768;2023-12-20T12:02:14;99288.81;;;7.35;57.84
6506;BME280;3286;49.858;8.768;2023-12-20T12:04:41;99288.47;;;7.07;59.43
6506;BME280;3286;49.858;8.768;2023-12-20T12:07:08;99292.03;;;7.17;58.45
6506;BME280;3286;49.858;8.768;2023-12-20T12:09:34;99289.09;;;6.99;59.30
6506;BME280;3286;49.858;8.768;2023-12-20T12:12:01;99303.25;;;7.19;58.53
6506;BME280;3286;49.858;8.768;2023-12-20T12:14:28;99303.75;;;6.69;59.63
6506;BME280;3286;49.858;8.768;2023-12-20T12:16:55;99319.13;;;7.18;60.99
6506;BME280;3286;49.858;8.768;2023-12-20T12:19:24;99307.13;;;7.25;59.67
6506;BME280;3286;49.858;8.768;2023-12-20T12:21:51;99304.25;;;6.63;60.66
6506;BME280;3286;49.858;8.768;2023-12-20T12:24:20;99308.22;;;6.90;60.23
6506;BME280;3286;49.858;8.768;2023-12-20T12:26:50;99299.34;;;7.35;58.85
6506;BME280;3286;49.858;8.768;2023-12-20T12:29:17;99309.91;;;7.23;59.27
6506;BME280;3286;49.858;8.768;2023-12-20T12:31:44;99300.91;;;7.26;58.65
6506;BME280;3286;49.858;8.768;2023-12-20T12:34:11;99298.44;;;7.46;58.24
6506;BME280;3286;49.858;8.768;2023-12-20T12:36:39;99295.28;;;7.73;57.71
6506;BME280;3286;49.858;8.768;2023-12-20T12:39:06;99288.34;;;7.93;57.16
6506;BME280;3286;49.858;8.768;2023-12-20T12:41:33;99277.88;;;7.30;59.07
6506;BME280;3286;49.858;8.768;2023-12-20T12:43:59;99261.81;;;7.75;57.68
6506;BME280;3286;49.858;8.768;2023-12-20T12:46:26;99262.72;;;7.64;58.56
6506;BME280;3286;49.858;8.768;2023-12-20T12:48:53;99257.28;;;7.56;58.02
6506;BME280;3286;49.858;8.768;2023-12-20T12:51:19;99243.63;;;7.93;57.48
6506;BME280;3286;49.858;8.768;2023-12-20T12:53:47;99245.44;;;7.72;57.22
6506;BME280;3286;49.858;8.768;2023-12-20T12:56:15;99236.78;;;8.22;55.54
6506;BME280;3286;49.858;8.768;2023-12-20T12:58:42;99241.78;;;8.25;55.99
6506;BME280;3286;49.858;8.768;2023-12-20T13:01:08;99237.44;;;8.55;54.64
6506;BME280;3286;49.858;8.768;2023-12-20T13:03:35;99232.75;;;8.18;55.94
6506;BME280;3286;49.858;8.768;2023-12-20T13:06:03;99226.41;;;8.20;55.29
6506;BME280;3286;49.858;8.768;2023-12-20T13:08:31;99217.66;;;8.20;55.54
6506;BME280;3286;49.858;8.768;2023-12-20T13:11:00;99206.13;;;8.72;53.84
6506;BME280;3286;49.858;8.768;2023-12-20T13:13:29;99210.09;;;8.36;55.53
6506;BME280;3286;49.858;8.768;2023-12-20T13:15:57;99191.88;;;8.84;54.55
6506;BME280;3286;49.858;8.768;2023-12-20T13:18:23;99178.13;;;8.70;54.54
6506;BME280;3286;49.858;8.768;2023-12-20T13:20:50;99180.91;;;8.89;54.47
6506;BME280;3286;49.858;8.768;2023-12-20T13:23:17;99181.47;;;8.63;54.87
6506;BME280;3286;49.858;8.768;2023-12-20T13:25:44;99172.06;;;8.00;56.04
6506;BME280;3286;49.858;8.768;2023-12-20T13:28:13;99171.97;;;7.70;56.63
6506;BME280;3286;49.858;8.768;2023-12-20T13:30:40;99177.38;;;7.37;57.18
6506;BME280;3286;49.858;8.768;2023-12-20T13:33:07;99171.97;;;7.39;57.62